sensor_id;sensor_type;location;lat;lon;timestamp;P1;durP1;ratioP1;P2;durP2;ratioP2
15246;SDS011;7726;48.820;9.248;2024-01-25T00:00:58;17.95;;;4.15;;
15246;SDS011;7726;48.820;9.248;2024-01-25T00:03:25;20.50;;;3.88;;
15246;SDS011;7726;48.820;9.248;2024-01-25T00:05:52;17.25;;;3.83;;
15246;SDS011;7726;48.820;9.248;2024-01-25T00:08:21;17.30;;;4.70;;
15246;SDS011;7726;48.820;9.248;2024-01-25T00:10:48;14.80;;;3.10;;
15246;SDS011;7726;48.820;9.248;2024-01-25T00:13:15;18.00;;;3.67;;
15246;SDS011;7726;48.820;9.248;2024-01-25T00:15:42;15.82;;;3.40;;
15246;SDS011;7726;48.820;9.248;2024-01-25T00:18:09;13.65;;;3.75;;
15246;SDS011;7726;48.820;9.248;2024-01-25T00:20:36;16.23;;;3.60;;
15246;SDS011;7726;48.820;9.248;2024-01-25T00:23:04;16.83;;;3.50;;
15246;SDS011;7726;48.820;9.248;2024-01-25T00:25:32;17.38;;;4.45;;
15246;SDS011;7726;48.820;9.248;2024-01-25T00:27:59;15.88;;;3.83;;
15246;SDS011;7726;48.820;9.248;2024-01-25T00:30:26;15.45;;;4.22;;
15246;SDS011;7726;48.820;9.248;2024-01-25T00:32:54;15.15;;;3.67;;
15246;SDS011;7726;48.820;9.248;2024-01-25T00:35:21;22.48;;;4.13;;
15246;SDS011;7726;48.820;9.248;2024-01-25T00:37:48;20.17;;;3.65;;
15246;SDS011;7726;48.820;9.248;2024-01-25T00:40:16;11.40;;;2.55;;
15246;SDS011;7726;48.820;9.248;2024-01-25T00:42:45;15.70;;;4.00;;
15246;SDS011;7726;48.820;9.248;2024-01-25T00:45:17;22.27;;;3.53;;
15246;SDS011;7726;48.820;9.248;2024-01-25T00:47:45;11.77;;;2.83;;
15246;SDS011;7726;48.820;9.248;2024-01-25T00:50:11;21.30;;;3.88;;
15246;SDS011;7726;48.820;9.248;2024-01-25T00:52:39;14.77;;;3.58;;
15246;SDS011;7726;48.820;9.248;2024-01-25T00:55:07;17.63;;;3.50;;
15246;SDS011;7726;48.820;9.248;2024-01-25T00:57:34;12.85;;;3.30;;
15246;SDS011;7726;48.820;9.248;2024-01-25T01:00:03;17.40;;;3.85;;
15246;SDS011;7726;48.820;9.248;2024-01-25T01:02:32;21.17;;;3.08;;
15246;SDS011;7726;48.820;9.248;2024-01-25T01:05:02;11.88;;;4.13;;
15246;SDS011;7726;48.820;9.248;2024-01-25T01:07:29;16.85;;;3.38;;
15246;SDS011;7726;48.820;9.248;2024-01-25T01:09:57;15.13;;;3.53;;
15246;SDS011;7726;48.820;9.248;2024-01-25T01:12:24;15.95;;;4.03;;
15246;SDS011;7726;48.820;9.248;2024-01-25T01:14:51;13.33;;;3.87;;
15246;SDS011;7726;48.820;9.248;2024-01-25T01:17:19;19.73;;;3.65;;
15246;SDS011;7726;48.820;9.248;2024-01-25T01:19:47;12.02;;;3.38;;
15246;SDS011;7726;48.820;9.248;2024-01-25T01:22:14;12.30;;;3.47;;
15246;SDS011;7726;48.820;9.248;2024-01-25T01:24:41;15.68;;;3.50;;
15246;SDS011;7726;48.820;9.248;2024-01-25T01:27:08;18.13;;;4.00;;
15246;SDS011;7726;48.820;9.248;2024-01-25T01:29:35;17.75;;;4.18;;
15246;SDS011;7726;48.820;9.248;2024-01-25T01:32:03;18.67;;;3.63;;
15246;SDS011;7726;48.820;9.248;2024-01-25T01:34:31;17.48;;;3.38;;
15246;SDS011;7726;48.820;9.248;2024-01-25T01:36:58;13.07;;;3.38;;
15246;SDS011;7726;48.820;9.248;2024-01-25T01:39:25;20.02;;;3.50;;
15246;SDS011;7726;48.820;9.248;2024-01-25T01:41:53;12.02;;;3.90;;
15246;SDS011;7726;48.820;9.248;2024-01-25T01:44:20;15.27;;;3.72;;
15246;SDS011;7726;48.820;9.248;2024-01-25T01:46:47;11.23;;;3.15;;
15246;SDS011;7726;48.820;9.248;2024-01-25T01:49:14;13.70;;;3.20;;
15246;SDS011;7726;48.820;9.248;2024-01-25T01:51:43;15.77;;;3.25;;
15246;SDS011;7726;48.820;9.248;2024-01-25T01:54:10;15.60;;;4.15;;
15246;SDS011;7726;48.820;9.248;2024-01-25T01:56:37;16.88;;;3.58;;
15246;SDS011;7726;48.820;9.248;2024-01-25T01:59:09;14.13;;;3.67;;
15246;SDS011;7726;48.820;9.248;2024-01-25T02:01:36;15.00;;;2.88;;
15246;SDS011;7726;48.820;9.248;2024-01-25T02:04:03;10.02;;;2.80;;
15246;SDS011;7726;48.820;9.248;2024-01-25T02:06:31;14.57;;;3.45;;
15246;SDS011;7726;48.820;9.248;2024-01-25T02:08:59;17.55;;;3.90;;
15246;SDS011;7726;48.820;9.248;2024-01-25T02:11:27;14.18;;;3.65;;
15246;SDS011;7726;48.820;9.248;2024-01-25T02:13:55;12.90;;;2.65;;
15246;SDS011;7726;48.820;9.248;2024-01-25T02:16:22;17.23;;;3.28;;
15246;SDS011;7726;48.820;9.248;2024-01-25T02:18:49;12.45;;;3.22;;
15246;SDS011;7726;48.820;9.248;2024-01-25T02:21:19;13.32;;;3.30;;
15246;SDS011;7726;48.820;9.248;2024-01-25T02:23:47;17.20;;;3.63;;
15246;SDS011;7726;48.820;9.248;2024-01-25T02:26:14;14.02;;;2.70;;
15246;SDS011;7726;48.820;9.248;2024-01-25T02:28:42;12.15;;;3.08;;
15246;SDS011;7726;48.820;9.248;2024-01-25T02:31:09;13.07;;;3.20;;
15246;SDS011;7726;48.820;9.248;2024-01-25T02:33:36;10.48;;;3.05;;
15246;SDS011;7726;48.820;9.248;2024-01-25T02:36:03;13.23;;;2.97;;
15246;SDS011;7726;48.820;9.248;2024-01-25T02:38:31;16.93;;;3.23;;
15246;SDS011;7726;48.820;9.248;2024-01-25T02:40:59;14.20;;;3.70;;
15246;SDS011;7726;48.820;9.248;2024-01-25T02:43:26;13.23;;;3.13;;
15246;SDS011;7726;48.820;9.248;2024-01-25T02:45:53;11.23;;;3.15;;
15246;SDS011;7726;48.820;9.248;2024-01-25T02:48:21;14.10;;;3.33;;
15246;SDS011;7726;48.820;9.248;2024-01-25T02:50:48;14.55;;;3.10;;
15246;SDS011;7726;48.820;9.248;2024-01-25T02:53:15;16.13;;;3.47;;
15246;SDS011;7726;48.820;9.248;2024-01-25T02:55:42;13.73;;;3.47;;
15246;SDS011;7726;48.820;9.248;2024-01-25T02:58:11;8.23;;;3.03;;
15246;SDS011;7726;48.820;9.248;2024-01-25T03:00:38;8.45;;;3.65;;
15246;SDS011;7726;48.820;9.248;2024-01-25T03:03:05;11.30;;;3.28;;
15246;SDS011;7726;48.820;9.248;2024-01-25T03:05:32;11.85;;;3.03;;
15246;SDS011;7726;48.820;9.248;2024-01-25T03:08:00;13.35;;;3.08;;
15246;SDS011;7726;48.820;9.248;2024-01-25T03:10:27;13.10;;;3.17;;
15246;SDS011;7726;48.820;9.248;2024-01-25T03:12:54;15.27;;;3.25;;
15246;SDS011;7726;48.820;9.248;2024-01-25T03:15:23;10.45;;;3.13;;
15246;SDS011;7726;48.820;9.248;2024-01-25T03:17:50;13.60;;;3.38;;
15246;SDS011;7726;48.820;9.248;2024-01-25T03:20:17;11.55;;;3.30;;
15246;SDS011;7726;48.820;9.248;2024-01-25T03:22:44;11.93;;;2.90;;
15246;SDS011;7726;48.820;9.248;2024-01-25T03:25:11;14.90;;;3.17;;
15246;SDS011;7726;48.820;9.248;2024-01-25T03:27:38;16.38;;;3.83;;
15246;SDS011;7726;48.820;9.248;2024-01-25T03:30:05;16.02;;;2.97;;
15246;SDS011;7726;48.820;9.248;2024-01-25T03:32:34;11.00;;;3.42;;
15246;SDS011;7726;48.820;9.248;2024-01-25T03:35:01;13.70;;;2.88;;
15246;SDS011;7726;48.820;9.248;2024-01-25T03:37:28;16.20;;;4.20;;
15246;SDS011;7726;48.820;9.248;2024-01-25T03:39:55;13.73;;;3.63;;
15246;SDS011;7726;48.820;9.248;2024-01-25T03:42:23;13.35;;;3.22;;
15246;SDS011;7726;48.820;9.248;2024-01-25T03:44:50;10.93;;;3.28;;
15246;SDS011;7726;48.820;9.248;2024-01-25T03:47:17;14.18;;;3.45;;
15246;SDS011;7726;48.820;9.248;2024-01-25T03:49:45;14.18;;;3.38;;
15246;SDS011;7726;48.820;9.248;2024-01-25T03:52:13;11.55;;;3.95;;
15246;SDS011;7726;48.820;9.248;2024-01-25T03:54:40;16.92;;;3.55;;
15246;SDS011;7726;48.820;9.248;2024-01-25T03:57:07;14.90;;;3.30;;
15246;SDS011;7726;48.820;9.248;2024-01-25T03:59:34;13.25;;;3.20;;
15246;SDS011;7726;48.820;9.248;2024-01-25T04:02:01;9.88;;;2.75;;
15246;SDS011;7726;48.820;9.248;2024-01-25T04:04:28;13.93;;;3.40;;
15246;SDS011;7726;48.820;9.248;2024-01-25T04:06:57;15.20;;;3.22;;
15246;SDS011;7726;48.820;9.248;2024-01-25T04:09:24;14.68;;;3.38;;
15246;SDS011;7726;48.820;9.248;2024-01-25T04:11:51;14.43;;;3.30;;
15246;SDS011;7726;48.820;9.248;2024-01-25T04:14:18;12.93;;;4.13;;
15246;SDS011;7726;48.820;9.248;2024-01-25T04:16:45;12.30;;;3.43;;
15246;SDS011;7726;48.820;9.248;2024-01-25T04:19:13;13.13;;;3.47;;
15246;SDS011;7726;48.820;9.248;2024-01-25T04:21:40;12.57;;;3.47;;
15246;SDS011;7726;48.820;9.248;2024-01-25T04:24:08;14.30;;;3.47;;
15246;SDS011;7726;48.820;9.248;2024-01-25T04:26:35;17.15;;;3.78;;
15246;SDS011;7726;48.820;9.248;2024-01-25T04:29:03;11.23;;;3.60;;
15246;SDS011;7726;48.820;9.248;2024-01-25T04:31:29;20.90;;;3.65;;
15246;SDS011;7726;48.820;9.248;2024-01-25T04:33:56;15.27;;;3.78;;
15246;SDS011;7726;48.820;9.248;2024-01-25T04:36:23;12.85;;;2.70;;
15246;SDS011;7726;48.820;9.248;2024-01-25T04:38:50;16.90;;;3.17;;
15246;SDS011;7726;48.820;9.248;2024-01-25T04:41:19;15.00;;;3.42;;
15246;SDS011;7726;48.820;9.248;2024-01-25T04:43:46;16.55;;;3.47;;
15246;SDS011;7726;48.820;9.248;2024-01-25T04:46:13;15.63;;;3.67;;
15246;SDS011;7726;48.820;9.248;2024-01-25T04:48:40;11.43;;;2.92;;
15246;SDS011;7726;48.820;9.248;2024-01-25T04:51:08;14.38;;;3.30;;
15246;SDS011;7726;48.820;9.248;2024-01-25T04:53:35;11.20;;;3.28;;
15246;SDS011;7726;48.820;9.248;2024-01-25T04:56:02;10.82;;;3.08;;
15246;SDS011;7726;48.820;9.248;2024-01-25T04:58:31;12.88;;;3.17;;
15246;SDS011;7726;48.820;9.248;2024-01-25T05:00:58;10.68;;;3.13;;
15246;SDS011;7726;48.820;9.248;2024-01-25T05:03:25;12.02;;;3.00;;
15246;SDS011;7726;48.820;9.248;2024-01-25T05:05:53;17.08;;;3.78;;
15246;SDS011;7726;48.820;9.248;2024-01-25T05:08:20;14.90;;;3.60;;
15246;SDS011;7726;48.820;9.248;2024-01-25T05:10:47;14.13;;;3.67;;
15246;SDS011;7726;48.820;9.248;2024-01-25T05:13:14;9.63;;;3.25;;
15246;SDS011;7726;48.820;9.248;2024-01-25T05:15:42;15.80;;;4.17;;
15246;SDS011;7726;48.820;9.248;2024-01-25T05:18:10;11.57;;;3.00;;
15246;SDS011;7726;48.820;9.248;2024-01-25T05:20:37;15.03;;;3.93;;
15246;SDS011;7726;48.820;9.248;2024-01-25T05:23:04;14.33;;;3.47;;
15246;SDS011;7726;48.820;9.248;2024-01-25T05:25:31;14.07;;;3.03;;
15246;SDS011;7726;48.820;9.248;2024-01-25T05:27:59;11.13;;;3.33;;
15246;SDS011;7726;48.820;9.248;2024-01-25T05:30:26;13.50;;;3.28;;
15246;SDS011;7726;48.820;9.248;2024-01-25T05:32:56;16.33;;;3.17;;
15246;SDS011;7726;48.820;9.248;2024-01-25T05:35:23;10.33;;;3.03;;
15246;SDS011;7726;48.820;9.248;2024-01-25T05:37:50;14.43;;;3.67;;
15246;SDS011;7726;48.820;9.248;2024-01-25T05:40:17;15.67;;;3.77;;
15246;SDS011;7726;48.820;9.248;2024-01-25T05:42:45;13.97;;;2.97;;
15246;SDS011;7726;48.820;9.248;2024-01-25T05:45:12;19.47;;;3.40;;
15246;SDS011;7726;48.820;9.248;2024-01-25T05:47:39;13.87;;;3.20;;
15246;SDS011;7726;48.820;9.248;2024-01-25T05:50:08;20.27;;;3.73;;
15246;SDS011;7726;48.820;9.248;2024-01-25T05:52:35;18.43;;;3.60;;
15246;SDS011;7726;48.820;9.248;2024-01-25T05:55:03;18.03;;;3.53;;
15246;SDS011;7726;48.820;9.248;2024-01-25T05:57:30;12.67;;;3.50;;
15246;SDS011;7726;48.820;9.248;2024-01-25T05:59:57;16.03;;;3.30;;
15246;SDS011;7726;48.820;9.248;2024-01-25T06:02:24;16.03;;;3.07;;
15246;SDS011;7726;48.820;9.248;2024-01-25T06:04:51;13.40;;;3.00;;
15246;SDS011;7726;48.820;9.248;2024-01-25T06:07:20;20.37;;;4.07;;
15246;SDS011;7726;48.820;9.248;2024-01-25T06:09:47;16.67;;;3.10;;
15246;SDS011;7726;48.820;9.248;2024-01-25T06:12:14;14.03;;;3.03;;
15246;SDS011;7726;48.820;9.248;2024-01-25T06:14:41;13.43;;;3.37;;
15246;SDS011;7726;48.820;9.248;2024-01-25T06:17:09;13.00;;;3.40;;
15246;SDS011;7726;48.820;9.248;2024-01-25T06:19:36;16.20;;;3.70;;
15246;SDS011;7726;48.820;9.248;2024-01-25T06:22:03;12.73;;;3.30;;
15246;SDS011;7726;48.820;9.248;2024-01-25T06:24:32;15.40;;;3.40;;
15246;SDS011;7726;48.820;9.248;2024-01-25T06:27:00;14.27;;;3.40;;
15246;SDS011;7726;48.820;9.248;2024-01-25T06:29:29;11.50;;;3.07;;
15246;SDS011;7726;48.820;9.248;2024-01-25T06:31:56;14.97;;;3.57;;
15246;SDS011;7726;48.820;9.248;2024-01-25T06:34:24;13.70;;;3.17;;
15246;SDS011;7726;48.820;9.248;2024-01-25T06:36:51;15.53;;;3.30;;
15246;SDS011;7726;48.820;9.248;2024-01-25T06:39:18;13.63;;;3.60;;
15246;SDS011;7726;48.820;9.248;2024-01-25T06:41:46;14.97;;;3.97;;
15246;SDS011;7726;48.820;9.248;2024-01-25T06:44:14;19.50;;;3.60;;
15246;SDS011;7726;48.820;9.248;2024-01-25T06:46:41;18.03;;;3.60;;
15246;SDS011;7726;48.820;9.248;2024-01-25T06:49:10;14.70;;;3.40;;
15246;SDS011;7726;48.820;9.248;2024-01-25T06:51:41;19.10;;;4.80;;
15246;SDS011;7726;48.820;9.248;2024-01-25T06:54:08;14.93;;;4.17;;
15246;SDS011;7726;48.820;9.248;2024-01-25T06:56:35;15.53;;;4.30;;
15246;SDS011;7726;48.820;9.248;2024-01-25T06:59:04;15.50;;;3.80;;
15246;SDS011;7726;48.820;9.248;2024-01-25T07:01:31;17.17;;;3.23;;
15246;SDS011;7726;48.820;9.248;2024-01-25T07:03:59;14.07;;;3.33;;
15246;SDS011;7726;48.820;9.248;2024-01-25T07:06:26;15.37;;;4.00;;
15246;SDS011;7726;48.820;9.248;2024-01-25T07:08:53;17.07;;;3.33;;
15246;SDS011;7726;48.820;9.248;2024-01-25T07:11:20;16.93;;;4.27;;
15246;SDS011;7726;48.820;9.248;2024-01-25T07:13:48;16.40;;;4.03;;
15246;SDS011;7726;48.820;9.248;2024-01-25T07:16:16;15.77;;;4.10;;
15246;SDS011;7726;48.820;9.248;2024-01-25T07:18:44;17.07;;;3.63;;
15246;SDS011;7726;48.820;9.248;2024-01-25T07:21:11;15.33;;;3.67;;
15246;SDS011;7726;48.820;9.248;2024-01-25T07:23:38;21.50;;;4.37;;
15246;SDS011;7726;48.820;9.248;2024-01-25T07:26:05;19.90;;;3.67;;
15246;SDS011;7726;48.820;9.248;2024-01-25T07:28:33;12.93;;;3.07;;
15246;SDS011;7726;48.820;9.248;2024-01-25T07:31:00;20.43;;;3.80;;
15246;SDS011;7726;48.820;9.248;2024-01-25T07:33:28;20.43;;;4.50;;
15246;SDS011;7726;48.820;9.248;2024-01-25T07:35:55;21.70;;;4.60;;
15246;SDS011;7726;48.820;9.248;2024-01-25T07:38:24;17.17;;;3.83;;
15246;SDS011;7726;48.820;9.248;2024-01-25T07:40:51;19.00;;;4.00;;
15246;SDS011;7726;48.820;9.248;2024-01-25T07:43:18;15.27;;;3.57;;
15246;SDS011;7726;48.820;9.248;2024-01-25T07:45:45;16.07;;;3.40;;
15246;SDS011;7726;48.820;9.248;2024-01-25T07:48:12;11.07;;;3.53;;
15246;SDS011;7726;48.820;9.248;2024-01-25T07:50:40;15.10;;;3.40;;
15246;SDS011;7726;48.820;9.248;2024-01-25T07:53:07;16.17;;;4.03;;
15246;SDS011;7726;48.820;9.248;2024-01-25T07:55:37;15.53;;;3.87;;
15246;SDS011;7726;48.820;9.248;2024-01-25T07:58:04;14.97;;;3.67;;
15246;SDS011;7726;48.820;9.248;2024-01-25T08:00:31;12.57;;;3.87;;
15246;SDS011;7726;48.820;9.248;2024-01-25T08:02:59;15.20;;;3.70;;
15246;SDS011;7726;48.820;9.248;2024-01-25T08:05:26;17.73;;;4.20;;
15246;SDS011;7726;48.820;9.248;2024-01-25T08:07:54;13.83;;;3.60;;
15246;SDS011;7726;48.820;9.248;2024-01-25T08:10:21;18.20;;;4.33;;
15246;SDS011;7726;48.820;9.248;2024-01-25T08:12:49;16.07;;;3.83;;
15246;SDS011;7726;48.820;9.248;2024-01-25T08:15:16;14.07;;;3.70;;
15246;SDS011;7726;48.820;9.248;2024-01-25T08:17:43;18.00;;;3.60;;
15246;SDS011;7726;48.820;9.248;2024-01-25T08:20:11;14.23;;;3.83;;
15246;SDS011;7726;48.820;9.248;2024-01-25T08:22:40;9.17;;;3.33;;
15246;SDS011;7726;48.820;9.248;2024-01-25T08:25:09;18.40;;;4.03;;
15246;SDS011;7726;48.820;9.248;2024-01-25T08:27:37;13.50;;;4.37;;
15246;SDS011;7726;48.820;9.248;2024-01-25T08:30:05;16.83;;;3.90;;
15246;SDS011;7726;48.820;9.248;2024-01-25T08:32:32;16.47;;;3.87;;
15246;SDS011;7726;48.820;9.248;2024-01-25T08:34:59;18.87;;;4.40;;
15246;SDS011;7726;48.820;9.248;2024-01-25T08:37:27;10.63;;;3.60;;
15246;SDS011;7726;48.820;9.248;2024-01-25T08:39:54;16.87;;;4.03;;
15246;SDS011;7726;48.820;9.248;2024-01-25T08:42:22;18.60;;;3.60;;
15246;SDS011;7726;48.820;9.248;2024-01-25T08:44:49;16.43;;;3.93;;
15246;SDS011;7726;48.820;9.248;2024-01-25T08:47:17;11.17;;;3.13;;
15246;SDS011;7726;48.820;9.248;2024-01-25T08:49:44;13.60;;;3.07;;
15246;SDS011;7726;48.820;9.248;2024-01-25T08:52:11;12.60;;;3.83;;
15246;SDS011;7726;48.820;9.248;2024-01-25T08:54:40;17.87;;;4.37;;
15246;SDS011;7726;48.820;9.248;2024-01-25T08:57:08;17.00;;;3.83;;
15246;SDS011;7726;48.820;9.248;2024-01-25T08:59:36;15.63;;;3.77;;
15246;SDS011;7726;48.820;9.248;2024-01-25T09:02:03;15.87;;;3.70;;
15246;SDS011;7726;48.820;9.248;2024-01-25T09:04:31;14.65;;;3.78;;
15246;SDS011;7726;48.820;9.248;2024-01-25T09:06:59;18.63;;;4.20;;
15246;SDS011;7726;48.820;9.248;2024-01-25T09:09:26;17.30;;;4.10;;
15246;SDS011;7726;48.820;9.248;2024-01-25T09:11:53;17.40;;;4.20;;
15246;SDS011;7726;48.820;9.248;2024-01-25T09:14:21;13.23;;;3.60;;
15246;SDS011;7726;48.820;9.248;2024-01-25T09:16:49;16.33;;;3.80;;
15246;SDS011;7726;48.820;9.248;2024-01-25T09:19:16;18.58;;;3.75;;
15246;SDS011;7726;48.820;9.248;2024-01-25T09:21:43;15.07;;;3.57;;
15246;SDS011;7726;48.820;9.248;2024-01-25T09:24:11;13.70;;;3.53;;
15246;SDS011;7726;48.820;9.248;2024-01-25T09:26:38;16.92;;;3.65;;
15246;SDS011;7726;48.820;9.248;2024-01-25T09:29:05;15.53;;;3.47;;
15246;SDS011;7726;48.820;9.248;2024-01-25T09:31:33;14.45;;;3.78;;
15246;SDS011;7726;48.820;9.248;2024-01-25T09:34:01;15.10;;;3.03;;
15246;SDS011;7726;48.820;9.248;2024-01-25T09:36:28;16.47;;;4.47;;
15246;SDS011;7726;48.820;9.248;2024-01-25T09:38:56;13.90;;;3.83;;
15246;SDS011;7726;48.820;9.248;2024-01-25T09:41:23;16.50;;;4.28;;
15246;SDS011;7726;48.820;9.248;2024-01-25T09:43:52;17.23;;;3.60;;
15246;SDS011;7726;48.820;9.248;2024-01-25T09:46:19;15.63;;;3.55;;
15246;SDS011;7726;48.820;9.248;2024-01-25T09:48:46;14.85;;;3.55;;
15246;SDS011;7726;48.820;9.248;2024-01-25T09:51:15;12.15;;;3.42;;
15246;SDS011;7726;48.820;9.248;2024-01-25T09:53:42;14.95;;;3.75;;
15246;SDS011;7726;48.820;9.248;2024-01-25T09:56:10;11.15;;;3.65;;
15246;SDS011;7726;48.820;9.248;2024-01-25T09:58:40;11.95;;;3.78;;
15246;SDS011;7726;48.820;9.248;2024-01-25T10:01:08;13.07;;;3.58;;
15246;SDS011;7726;48.820;9.248;2024-01-25T10:03:36;11.15;;;2.85;;
15246;SDS011;7726;48.820;9.248;2024-01-25T10:06:05;12.40;;;3.65;;
15246;SDS011;7726;48.820;9.248;2024-01-25T10:08:33;17.60;;;4.35;;
15246;SDS011;7726;48.820;9.248;2024-01-25T10:11:01;16.77;;;3.90;;
15246;SDS011;7726;48.820;9.248;2024-01-25T10:13:28;15.38;;;3.40;;
15246;SDS011;7726;48.820;9.248;2024-01-25T10:15:55;14.75;;;3.72;;
15246;SDS011;7726;48.820;9.248;2024-01-25T10:18:22;17.67;;;3.38;;
15246;SDS011;7726;48.820;9.248;2024-01-25T10:20:49;13.60;;;3.30;;
15246;SDS011;7726;48.820;9.248;2024-01-25T10:23:16;16.67;;;3.72;;
15246;SDS011;7726;48.820;9.248;2024-01-25T10:25:45;18.30;;;3.95;;
15246;SDS011;7726;48.820;9.248;2024-01-25T10:28:12;19.55;;;4.07;;
15246;SDS011;7726;48.820;9.248;2024-01-25T10:30:39;14.45;;;4.82;;
15246;SDS011;7726;48.820;9.248;2024-01-25T10:33:06;12.48;;;3.22;;
15246;SDS011;7726;48.820;9.248;2024-01-25T10:35:36;15.65;;;3.63;;
15246;SDS011;7726;48.820;9.248;2024-01-25T10:38:03;18.95;;;3.65;;
15246;SDS011;7726;48.820;9.248;2024-01-25T10:40:31;16.13;;;3.85;;
15246;SDS011;7726;48.820;9.248;2024-01-25T10:43:00;14.40;;;3.30;;
15246;SDS011;7726;48.820;9.248;2024-01-25T10:45:27;15.48;;;3.63;;
15246;SDS011;7726;48.820;9.248;2024-01-25T10:47:55;15.07;;;3.08;;
15246;SDS011;7726;48.820;9.248;2024-01-25T10:50:23;16.95;;;3.60;;
15246;SDS011;7726;48.820;9.248;2024-01-25T10:52:50;14.48;;;4.18;;
15246;SDS011;7726;48.820;9.248;2024-01-25T10:55:18;13.98;;;3.60;;
15246;SDS011;7726;48.820;9.248;2024-01-25T10:57:45;18.40;;;3.88;;
15246;SDS011;7726;48.820;9.248;2024-01-25T11:00:14;16.58;;;3.30;;
15246;SDS011;7726;48.820;9.248;2024-01-25T11:02:42;14.60;;;3.40;;
15246;SDS011;7726;48.820;9.248;2024-01-25T11:05:09;15.00;;;3.53;;
15246;SDS011;7726;48.820;9.248;2024-01-25T11:07:43;10.07;;;3.40;;
15246;SDS011;7726;48.820;9.248;2024-01-25T11:10:14;15.05;;;3.58;;
15246;SDS011;7726;48.820;9.248;2024-01-25T11:12:50;16.05;;;3.40;;
15246;SDS011;7726;48.820;9.248;2024-01-25T11:15:21;15.50;;;3.35;;
15246;SDS011;7726;48.820;9.248;2024-01-25T11:17:53;12.98;;;3.03;;
15246;SDS011;7726;48.820;9.248;2024-01-25T11:20:20;11.32;;;2.85;;
15246;SDS011;7726;48.820;9.248;2024-01-25T11:22:48;8.48;;;2.45;;
15246;SDS011;7726;48.820;9.248;2024-01-25T11:25:19;14.57;;;3.35;;
15246;SDS011;7726;48.820;9.248;2024-01-25T11:27:47;17.42;;;3.33;;
15246;SDS011;7726;48.820;9.248;2024-01-25T11:30:15;11.55;;;2.83;;
15246;SDS011;7726;48.820;9.248;2024-01-25T11:32:45;17.58;;;3.45;;
15246;SDS011;7726;48.820;9.248;2024-01-25T11:35:13;11.07;;;2.90;;
15246;SDS011;7726;48.820;9.248;2024-01-25T11:37:42;8.73;;;3.00;;
15246;SDS011;7726;48.820;9.248;2024-01-25T11:40:10;11.07;;;3.03;;
15246;SDS011;7726;48.820;9.248;2024-01-25T11:42:37;13.02;;;2.90;;
15246;SDS011;7726;48.820;9.248;2024-01-25T11:45:05;10.18;;;2.58;;
15246;SDS011;7726;48.820;9.248;2024-01-25T11:47:32;15.77;;;3.28;;
15246;SDS011;7726;48.820;9.248;2024-01-25T11:50:01;11.02;;;2.70;;
15246;SDS011;7726;48.820;9.248;2024-01-25T11:52:28;10.35;;;2.78;;
15246;SDS011;7726;48.820;9.248;2024-01-25T11:54:57;10.50;;;2.58;;
15246;SDS011;7726;48.820;9.248;2024-01-25T11:57:24;11.13;;;3.17;;
15246;SDS011;7726;48.820;9.248;2024-01-25T11:59:51;12.40;;;3.08;;
15246;SDS011;7726;48.820;9.248;2024-01-25T12:02:19;10.13;;;3.08;;
15246;SDS011;7726;48.820;9.248;2024-01-25T12:04:46;14.65;;;3.47;;
15246;SDS011;7726;48.820;9.248;2024-01-25T12:07:15;12.30;;;3.00;;
15246;SDS011;7726;48.820;9.248;2024-01-25T12:09:42;11.43;;;2.72;;
15246;SDS011;7726;48.820;9.248;2024-01-25T12:12:10;9.60;;;2.78;;
15246;SDS011;7726;48.820;9.248;2024-01-25T12:14:37;10.20;;;3.08;;
15246;SDS011;7726;48.820;9.248;2024-01-25T12:17:04;11.35;;;3.17;;
15246;SDS011;7726;48.820;9.248;2024-01-25T12:19:32;10.85;;;3.55;;
15246;SDS011;7726;48.820;9.248;2024-01-25T12:22:00;9.82;;;2.60;;
15246;SDS011;7726;48.820;9.248;2024-01-25T12:24:29;10.52;;;2.55;;
15246;SDS011;7726;48.820;9.248;2024-01-25T12:26:57;12.38;;;3.22;;
15246;SDS011;7726;48.820;9.248;2024-01-25T12:29:25;8.40;;;2.72;;
15246;SDS011;7726;48.820;9.248;2024-01-25T12:31:53;12.75;;;2.30;;
15246;SDS011;7726;48.820;9.248;2024-01-25T12:34:20;9.40;;;2.65;;
15246;SDS011;7726;48.820;9.248;2024-01-25T12:36:47;9.40;;;2.58;;
15246;SDS011;7726;48.820;9.248;2024-01-25T12:39:14;8.30;;;1.92;;
15246;SDS011;7726;48.820;9.248;2024-01-25T12:41:43;11.85;;;2.90;;
15246;SDS011;7726;48.820;9.248;2024-01-25T12:44:10;7.90;;;2.10;;
15246;SDS011;7726;48.820;9.248;2024-01-25T12:46:37;7.60;;;2.40;;
15246;SDS011;7726;48.820;9.248;2024-01-25T12:49:04;5.32;;;2.20;;
15246;SDS011;7726;48.820;9.248;2024-01-25T12:51:32;11.60;;;2.97;;
15246;SDS011;7726;48.820;9.248;2024-01-25T12:53:58;10.15;;;2.80;;
15246;SDS011;7726;48.820;9.248;2024-01-25T12:56:25;11.32;;;2.67;;
15246;SDS011;7726;48.820;9.248;2024-01-25T12:58:54;7.88;;;2.90;;
15246;SDS011;7726;48.820;9.248;2024-01-25T13:01:21;6.43;;;2.63;;
15246;SDS011;7726;48.820;9.248;2024-01-25T13:03:48;9.95;;;2.55;;
15246;SDS011;7726;48.820;9.248;2024-01-25T13:06:16;10.65;;;2.35;;
15246;SDS011;7726;48.820;9.248;2024-01-25T13:08:44;10.77;;;2.58;;
15246;SDS011;7726;48.820;9.248;2024-01-25T13:11:11;14.43;;;3.30;;
15246;SDS011;7726;48.820;9.248;2024-01-25T13:13:38;8.20;;;2.78;;
15246;SDS011;7726;48.820;9.248;2024-01-25T13:16:07;8.52;;;1.92;;
15246;SDS011;7726;48.820;9.248;2024-01-25T13:18:34;6.40;;;2.00;;
15246;SDS011;7726;48.820;9.248;2024-01-25T13:21:01;12.32;;;3.10;;
15246;SDS011;7726;48.820;9.248;2024-01-25T13:23:29;6.68;;;2.40;;
15246;SDS011;7726;48.820;9.248;2024-01-25T13:25:56;6.03;;;2.13;;
15246;SDS011;7726;48.820;9.248;2024-01-25T13:28:23;14.90;;;2.58;;
15246;SDS011;7726;48.820;9.248;2024-01-25T13:30:50;11.90;;;2.38;;
15246;SDS011;7726;48.820;9.248;2024-01-25T13:33:21;6.85;;;2.25;;
15246;SDS011;7726;48.820;9.248;2024-01-25T13:35:48;10.23;;;2.60;;
15246;SDS011;7726;48.820;9.248;2024-01-25T13:38:15;8.18;;;2.20;;
15246;SDS011;7726;48.820;9.248;2024-01-25T13:40:43;10.15;;;2.70;;
15246;SDS011;7726;48.820;9.248;2024-01-25T13:43:10;10.68;;;3.25;;
15246;SDS011;7726;48.820;9.248;2024-01-25T13:45:38;9.75;;;2.50;;
15246;SDS011;7726;48.820;9.248;2024-01-25T13:48:05;10.85;;;2.60;;
15246;SDS011;7726;48.820;9.248;2024-01-25T13:50:34;6.63;;;2.28;;
15246;SDS011;7726;48.820;9.248;2024-01-25T13:53:01;8.48;;;2.28;;
15246;SDS011;7726;48.820;9.248;2024-01-25T13:55:28;11.77;;;2.90;;
15246;SDS011;7726;48.820;9.248;2024-01-25T13:57:55;7.82;;;2.67;;
15246;SDS011;7726;48.820;9.248;2024-01-25T14:00:23;8.68;;;2.35;;
15246;SDS011;7726;48.820;9.248;2024-01-25T14:02:50;9.32;;;2.53;;
15246;SDS011;7726;48.820;9.248;2024-01-25T14:05:17;12.93;;;2.30;;
15246;SDS011;7726;48.820;9.248;2024-01-25T14:07:45;8.27;;;2.13;;
15246;SDS011;7726;48.820;9.248;2024-01-25T14:10:13;5.57;;;2.15;;
15246;SDS011;7726;48.820;9.248;2024-01-25T14:12:40;7.53;;;2.03;;
15246;SDS011;7726;48.820;9.248;2024-01-25T14:15:09;7.40;;;2.00;;
15246;SDS011;7726;48.820;9.248;2024-01-25T14:17:36;7.65;;;2.35;;
15246;SDS011;7726;48.820;9.248;2024-01-25T14:20:04;9.50;;;2.75;;
15246;SDS011;7726;48.820;9.248;2024-01-25T14:22:32;8.95;;;2.30;;
15246;SDS011;7726;48.820;9.248;2024-01-25T14:25:00;11.52;;;3.05;;
15246;SDS011;7726;48.820;9.248;2024-01-25T14:27:27;8.93;;;2.45;;
15246;SDS011;7726;48.820;9.248;2024-01-25T14:29:55;6.85;;;1.90;;
15246;SDS011;7726;48.820;9.248;2024-01-25T14:32:22;6.93;;;2.33;;
15246;SDS011;7726;48.820;9.248;2024-01-25T14:34:49;4.68;;;1.77;;
15246;SDS011;7726;48.820;9.248;2024-01-25T14:37:16;9.95;;;2.53;;
15246;SDS011;7726;48.820;9.248;2024-01-25T14:39:44;10.93;;;2.90;;
15246;SDS011;7726;48.820;9.248;2024-01-25T14:42:12;7.47;;;2.30;;
15246;SDS011;7726;48.820;9.248;2024-01-25T14:44:42;7.53;;;2.08;;
15246;SDS011;7726;48.820;9.248;2024-01-25T14:47:09;9.45;;;2.20;;
15246;SDS011;7726;48.820;9.248;2024-01-25T14:49:38;8.50;;;2.47;;
15246;SDS011;7726;48.820;9.248;2024-01-25T14:52:05;10.80;;;2.53;;